Terminal Aerodrome Forecast
Issued by NWS Blacksburg, VA

Current Version | Previous Version | Graphics & Text | Print | Product List | Glossary On
Versions: 1 2 3 4 5 6 7 8 9 10 11 12 13 14 15 16 17 18 19
000
FTUS41 KRNK 152001 AAA
TAFBLF
TAF AMD
KBLF 152001Z 1520/1618 30010KT 6SM -SHSN OVC007
      TEMPO 1520/1521 1SM -SHSN
     FM152300 31014G25KT P6SM OVC020
     FM160600 32007KT P6SM SCT020=

USA.gov is the U.S. government's official web portal to all federal, state and local government web resources and services.